Time;durP1;ratioP1;P1;durP2;ratioP2;P2;SDS_P1;SDS_P2;PMS_P1;PMS_P2;Temp;Humidity;BMP_temperature;BMP_pressure;BME280_temperature;BME280_humidity;BME280_pressure;Samples;Min_cycle;Max_cycle;Signal;HPM_P1;HPM_P2
2023/10/07 00:02:53;;;;;;;;;;;;;;;;;;6174340;23;19928;-87
2023/10/07 00:05:26;;;;;;;;;;;;;;;;;;6146792;23;19920;-87
2023/10/07 00:07:52;;;;;;;;;;;;;;;;;;6119671;23;19982;-87
2023/10/07 00:10:25;;;;;;;;;;;;;;;;;;6121491;23;19924;-86
2023/10/07 00:12:51;;;;;;;;;;;;;;;;;;6121793;23;19984;-87
2023/10/07 00:15:21;;;;;;;;;;;;;;;;;;6123243;23;19916;-86
2023/10/07 00:17:47;;;;;;;;;;;;;;;;;;6121528;23;19959;-87
2023/10/07 00:20:13;;;;;;;;;;;;;;;;;;6123840;23;19975;-87
2023/10/07 00:22:41;;;;;;;;;;;;;;;;;;6118402;23;19924;-87
2023/10/07 00:25:07;;;;;;;;;;;;;;;;;;6124951;23;19916;-87
2023/10/07 00:27:38;;;;;;;;;;;;;;;;;;6146984;23;20006;-87
2023/10/07 00:30:12;;;;;;;;;;;;;;;;;;6124658;23;19923;-86
2023/10/07 00:32:38;;;;;;;;;;;;;;;;;;6174477;23;19924;-87
2023/10/07 00:35:06;;;;;;;;;;;;;;;;;;6150039;23;20249;-86
2023/10/07 00:37:35;;;;;;;;;;;;;;;;;;6147602;23;19920;-87
2023/10/07 00:40:14;;;;;;;;;;;;;;;;;;6124392;23;20333;-87
2023/10/07 00:42:44;;;;;;;;;;;;;;;;;;6170907;23;20335;-87
2023/10/07 00:45:15;;;;;;;;;;;;;;;;;;6146293;23;19983;-87
2023/10/07 00:47:41;;;;;;;;;;;;;;;;;;6173236;23;19987;-86
2023/10/07 00:50:09;;;;;;;;;;;;;;;;;;6122170;23;20307;-87
2023/10/07 00:52:52;;;;;;;;;;;;;;;;;;6144149;23;19927;-87
2023/10/07 00:55:28;;;;;;;;;;;;;;;;;;6144666;23;19952;-87
2023/10/07 00:58:06;;;;;;;;;;;;;;;;;;6142315;23;20333;-87
2023/10/07 01:03:17;;;;;;;;;;;;;;;;;;6146187;23;20321;-87
2023/10/07 01:08:35;;;;;;;;;;;;;;;;;;6172827;23;20248;-86
2023/10/07 01:13:51;;;;;;;;;;;;;;;;;;6170428;23;19932;-87
2023/10/07 01:16:24;;;;;;;;;;;;;;;;;;6175164;23;19920;-86
2023/10/07 01:18:58;;;;;;;;;;;;;;;;;;6120290;23;19999;-86
2023/10/07 01:21:31;;;;;;;;;;;;;;;;;;6123144;23;19924;-87
2023/10/07 01:23:58;;;;;;;;;;;;;;;;;;6123629;23;20349;-87
2023/10/07 01:26:29;;;;;;;;;;;;;;;;;;6123694;23;19920;-87
2023/10/07 01:29:12;;;;;;;;;;;;;;;;;;6173333;23;19927;-86
2023/10/07 01:31:42;;;;;;;;;;;;;;;;;;6144117;23;19994;-87
2023/10/07 01:34:13;;;;;;;;;;;;;;;;;;6146531;23;20713;-87
2023/10/07 01:36:40;;;;;;;;;;;;;;;;;;6147407;23;20526;-87
2023/10/07 01:39:06;;;;;;;;;;;;;;;;;;6124914;23;19920;-87
2023/10/07 01:41:37;;;;;;;;;;;;;;;;;;6145247;23;20338;-87
2023/10/07 01:44:06;;;;;;;;;;;;;;;;;;6172739;23;19943;-87
2023/10/07 01:46:32;;;;;;;;;;;;;;;;;;6120334;23;19951;-87
2023/10/07 01:49:01;;;;;;;;;;;;;;;;;;6174612;23;19920;-87
2023/10/07 01:51:27;;;;;;;;;;;;;;;;;;6146076;23;19928;-87
2023/10/07 01:53:56;;;;;;;;;;;;;;;;;;6171165;23;20299;-87
2023/10/07 01:56:22;;;;;;;;;;;;;;;;;;6175355;23;19999;-88
2023/10/07 01:58:48;;;;;;;;;;;;;;;;;;6143012;23;19924;-87
2023/10/07 02:01:17;;;;;;;;;;;;;;;;;;6122251;23;19920;-87
2023/10/07 02:03:46;;;;;;;;;;;;;;;;;;6170551;23;19942;-87
2023/10/07 02:06:16;;;;;;;;;;;;;;;;;;6117739;23;19924;-88
2023/10/07 02:08:42;;;;;;;;;;;;;;;;;;6168239;23;20020;-88
2023/10/07 02:11:09;;;;;;;;;;;;;;;;;;6142249;23;19971;-87
2023/10/07 02:13:35;;;;;;;;;;;;;;;;;;6140276;23;20003;-88
2023/10/07 02:16:03;;;;;;;;;;;;;;;;;;6144755;23;20313;-88
2023/10/07 02:18:29;;;;;;;;;;;;;;;;;;6141261;23;19990;-87
2023/10/07 02:21:07;;;;;;;;;;;;;;;;;;6118214;23;19924;-87
2023/10/07 02:23:45;;;;;;;;;;;;;;;;;;6118590;23;19926;-88
2023/10/07 02:26:17;;;;;;;;;;;;;;;;;;6121442;23;19930;-87
2023/10/07 02:28:44;;;;;;;;;;;;;;;;;;6143939;23;19927;-88
2023/10/07 02:31:15;;;;;;;;;;;;;;;;;;6146954;23;20320;-88
2023/10/07 02:33:54;;;;;;;;;;;;;;;;;;6115758;23;19931;-87
2023/10/07 02:36:31;;;;;;;;;;;;;;;;;;6118627;23;20002;-87
2023/10/07 02:39:00;;;;;;;;;;;;;;;;;;6118086;23;19928;-87
2023/10/07 02:41:26;;;;;;;;;;;;;;;;;;6143287;23;20380;-87
2023/10/07 02:43:52;;;;;;;;;;;;;;;;;;6140342;23;19924;-87
2023/10/07 02:49:14;;;;;;;;;;;;;;;;;;6160111;23;19927;-87
2023/10/07 02:51:45;;;;;;;;;;;;;;;;;;6141932;23;20683;-87
2023/10/07 02:57:24;;;;;;;;;;;;;;;;;;6140819;23;20458;-87
2023/10/07 02:59:36;;;;;;;;;;;;;;;;;;6135708;23;19942;-87
2023/10/07 03:04:43;;;;;;;;;;;;;;;;;;6140396;23;20556;-88
2023/10/07 03:07:18;;;;;;;;;;;;;;;;;;6148145;23;19931;-87
2023/10/07 03:09:54;;;;;;;;;;;;;;;;;;6146635;23;19920;-88
2023/10/07 03:12:27;;;;;;;;;;;;;;;;;;6148440;23;20339;-87
2023/10/07 03:14:55;;;;;;;;;;;;;;;;;;6123410;23;20022;-87
2023/10/07 03:17:21;;;;;;;;;;;;;;;;;;6124530;23;19916;-87
2023/10/07 03:19:58;;;;;;;;;;;;;;;;;;6119521;23;19920;-87
2023/10/07 03:22:28;;;;;;;;;;;;;;;;;;6148767;23;20264;-87
2023/10/07 03:25:00;;;;;;;;;;;;;;;;;;6147230;23;19924;-88
2023/10/07 03:27:26;;;;;;;;;;;;;;;;;;6150408;23;19925;-87
2023/10/07 03:30:00;;;;;;;;;;;;;;;;;;6146947;23;19927;-87
2023/10/07 03:32:32;;;;;;;;;;;;;;;;;;6148705;23;20299;-87
2023/10/07 03:34:57;;;;;;;;;;;;;;;;;;6125286;23;19927;-87
2023/10/07 03:37:25;;;;;;;;;;;;;;;;;;6175749;23;20260;-87
2023/10/07 03:40:17;;;;;;;;;;;;;;;;;;6173685;23;20093;-87
2023/10/07 03:42:44;;;;;;;;;;;;;;;;;;6172651;23;19959;-87
2023/10/07 03:45:14;;;;;;;;;;;;;;;;;;6123804;23;19916;-87
2023/10/07 03:47:41;;;;;;;;;;;;;;;;;;6169055;23;19924;-87
2023/10/07 03:50:24;;;;;;;;;;;;;;;;;;6146891;23;20035;-87
2023/10/07 03:52:50;;;;;;;;;;;;;;;;;;6171239;23;19927;-87
2023/10/07 03:55:16;;;;;;;;;;;;;;;;;;6173896;23;19916;-87
2023/10/07 03:57:43;;;;;;;;;;;;;;;;;;6145648;23;19920;-87
2023/10/07 04:00:11;;;;;;;;;;;;;;;;;;6149621;23;20297;-87
2023/10/07 04:02:39;;;;;;;;;;;;;;;;;;6173693;23;19916;-88
2023/10/07 04:05:12;;;;;;;;;;;;;;;;;;6148208;23;19920;-88
2023/10/07 04:07:38;;;;;;;;;;;;;;;;;;6171887;23;20649;-87
2023/10/07 04:12:47;;;;;;;;;;;;;;;;;;6171562;23;19920;-88
2023/10/07 04:15:16;;;;;;;;;;;;;;;;;;6145971;23;19922;-88
2023/10/07 04:17:42;;;;;;;;;;;;;;;;;;6172777;23;19983;-87
2023/10/07 04:20:18;;;;;;;;;;;;;;;;;;6174830;23;19999;-87
2023/10/07 04:22:44;;;;;;;;;;;;;;;;;;6172807;23;19924;-87
2023/10/07 04:25:17;;;;;;;;;;;;;;;;;;6174752;23;20312;-87
2023/10/07 04:27:43;;;;;;;;;;;;;;;;;;6124158;23;19928;-87
2023/10/07 04:30:13;;;;;;;;;;;;;;;;;;6124241;23;19920;-87
2023/10/07 04:32:52;;;;;;;;;;;;;;;;;;6145363;23;19924;-88
2023/10/07 04:35:20;;;;;;;;;;;;;;;;;;6123005;23;19931;-87
2023/10/07 04:37:54;;;;;;;;;;;;;;;;;;6119194;23;19920;-88
2023/10/07 04:43:25;;;;;;;;;;;;;;;;;;6142605;23;20436;-87
2023/10/07 04:45:53;;;;;;;;;;;;;;;;;;6143540;23;19956;-88
2023/10/07 04:48:42;;;;;;;;;;;;;;;;;;6144906;23;20235;-88
2023/10/07 04:51:12;;;;;;;;;;;;;;;;;;6143237;23;19920;-87
2023/10/07 04:53:39;;;;;;;;;;;;;;;;;;6121021;23;20256;-87
2023/10/07 04:56:05;;;;;;;;;;;;;;;;;;6148138;23;19987;-87
2023/10/07 04:58:31;;;;;;;;;;;;;;;;;;6171078;23;19954;-87
2023/10/07 05:01:04;;;;;;;;;;;;;;;;;;6145961;23;19963;-87
2023/10/07 05:03:30;;;;;;;;;;;;;;;;;;6172331;23;19920;-87
2023/10/07 05:05:58;;;;;;;;;;;;;;;;;;6144549;23;19927;-87
2023/10/07 05:08:27;;;;;;;;;;;;;;;;;;6147362;23;19974;-87
2023/10/07 05:11:09;;;;;;;;;;;;;;;;;;6145863;23;19920;-87
2023/10/07 05:13:46;;;;;;;;;;;;;;;;;;6144500;23;19962;-87
2023/10/07 05:16:13;;;;;;;;;;;;;;;;;;6172929;23;19916;-87
2023/10/07 05:18:41;;;;;;;;;;;;;;;;;;6146468;23;19917;-87
2023/10/07 05:21:08;;;;;;;;;;;;;;;;;;6146746;23;19924;-87
2023/10/07 05:23:36;;;;;;;;;;;;;;;;;;6171512;23;19991;-87
2023/10/07 05:26:09;;;;;;;;;;;;;;;;;;6146039;23;19920;-87
2023/10/07 05:28:39;;;;;;;;;;;;;;;;;;6140650;23;20325;-87
2023/10/07 05:31:05;;;;;;;;;;;;;;;;;;6147721;23;19920;-87
2023/10/07 05:33:36;;;;;;;;;;;;;;;;;;6146924;23;19932;-87
2023/10/07 05:36:17;;;;;;;;;;;;;;;;;;6174526;23;19924;-87
2023/10/07 05:38:44;;;;;;;;;;;;;;;;;;6143845;23;20450;-88
2023/10/07 05:41:15;;;;;;;;;;;;;;;;;;6124115;23;19917;-87
2023/10/07 05:43:44;;;;;;;;;;;;;;;;;;6169730;23;19924;-87
2023/10/07 05:46:11;;;;;;;;;;;;;;;;;;6174174;23;19920;-87
2023/10/07 05:48:38;;;;;;;;;;;;;;;;;;6141365;23;19931;-87
2023/10/07 05:51:07;;;;;;;;;;;;;;;;;;6145947;23;20011;-87
2023/10/07 05:53:36;;;;;;;;;;;;;;;;;;6142822;23;19956;-86
2023/10/07 05:56:05;;;;;;;;;;;;;;;;;;6122189;23;19924;-86
2023/10/07 05:58:33;;;;;;;;;;;;;;;;;;6142700;23;19921;-87
2023/10/07 06:01:00;;;;;;;;;;;;;;;;;;6172025;23;20123;-87
2023/10/07 06:03:28;;;;;;;;;;;;;;;;;;6169174;23;20472;-87
2023/10/07 06:06:07;;;;;;;;;;;;;;;;;;6173700;23;20701;-88
2023/10/07 06:08:37;;;;;;;;;;;;;;;;;;6145022;23;19924;-87
2023/10/07 06:11:05;;;;;;;;;;;;;;;;;;6124151;23;19920;-87
2023/10/07 06:13:37;;;;;;;;;;;;;;;;;;6146042;23;19982;-87
2023/10/07 06:16:08;;;;;;;;;;;;;;;;;;6146824;23;19924;-86
2023/10/07 06:18:36;;;;;;;;;;;;;;;;;;6143154;23;19995;-87
2023/10/07 06:21:19;;;;;;;;;;;;;;;;;;6144282;23;19924;-87
2023/10/07 06:23:58;;;;;;;;;;;;;;;;;;6144015;23;19963;-87
2023/10/07 06:26:36;;;;;;;;;;;;;;;;;;6140472;23;20265;-87
2023/10/07 06:29:18;;;;;;;;;;;;;;;;;;6146209;23;19920;-87
2023/10/07 06:31:55;;;;;;;;;;;;;;;;;;6143949;23;19971;-87
2023/10/07 06:34:25;;;;;;;;;;;;;;;;;;6169856;23;20003;-86
2023/10/07 06:37:01;;;;;;;;;;;;;;;;;;6172533;23;19943;-87
2023/10/07 06:39:27;;;;;;;;;;;;;;;;;;6144443;23;19991;-86
2023/10/07 06:41:57;;;;;;;;;;;;;;;;;;6168765;23;19951;-86
2023/10/07 06:44:24;;;;;;;;;;;;;;;;;;6147037;23;19916;-86
2023/10/07 06:47:10;;;;;;;;;;;;;;;;;;6150248;23;19921;-87
2023/10/07 06:49:39;;;;;;;;;;;;;;;;;;6142172;23;20003;-87
2023/10/07 06:52:12;;;;;;;;;;;;;;;;;;6147033;23;19916;-87
2023/10/07 06:54:39;;;;;;;;;;;;;;;;;;6146917;23;20249;-87
2023/10/07 06:57:10;;;;;;;;;;;;;;;;;;6150039;23;19987;-86
2023/10/07 06:59:55;;;;;;;;;;;;;;;;;;6174364;23;20253;-86
2023/10/07 07:02:34;;;;;;;;;;;;;;;;;;6148129;23;20185;-86
2023/10/07 07:05:15;;;;;;;;;;;;;;;;;;6146972;23;19920;-86
2023/10/07 07:07:54;;;;;;;;;;;;;;;;;;6146105;23;20008;-86
2023/10/07 07:10:31;;;;;;;;;;;;;;;;;;6120821;23;19920;-86
2023/10/07 07:13:18;;;;;;;;;;;;;;;;;;6147906;23;19969;-86
2023/10/07 07:15:47;;;;;;;;;;;;;;;;;;6137051;23;19920;-86
2023/10/07 07:21:13;;;;;;;;;;;;;;;;;;6169657;23;20233;-87
2023/10/07 07:23:45;;;;;;;;;;;;;;;;;;6144735;23;19951;-87
2023/10/07 07:26:21;;;;;;;;;;;;;;;;;;6148445;23;19920;-87
2023/10/07 07:29:08;;;;;;;;;;;;;;;;;;6145704;23;19966;-87
2023/10/07 07:31:38;;;;;;;;;;;;;;;;;;6143973;23;19920;-87
2023/10/07 07:34:20;;;;;;;;;;;;;;;;;;6143954;23;20638;-87
2023/10/07 07:37:03;;;;;;;;;;;;;;;;;;6142768;23;19920;-86
2023/10/07 07:39:33;;;;;;;;;;;;;;;;;;6172162;23;19923;-87
2023/10/07 07:42:22;;;;;;;;;;;;;;;;;;6168299;23;19974;-86
2023/10/07 07:44:57;;;;;;;;;;;;;;;;;;6171633;23;20245;-86
2023/10/07 07:47:31;;;;;;;;;;;;;;;;;;6147826;23;19924;-86
2023/10/07 07:50:08;;;;;;;;;;;;;;;;;;6173716;23;19920;-86
2023/10/07 07:52:35;;;;;;;;;;;;;;;;;;6143387;23;19943;-86
2023/10/07 07:55:03;;;;;;;;;;;;;;;;;;6126277;23;19925;-86
2023/10/07 07:57:30;;;;;;;;;;;;;;;;;;6150301;23;20305;-86
2023/10/07 08:00:20;;;;;;;;;;;;;;;;;;6153844;23;19915;-86
2023/10/07 08:02:55;;;;;;;;;;;;;;;;;;6174940;23;19920;-86
2023/10/07 08:05:24;;;;;;;;;;;;;;;;;;6150281;23;19931;-86
2023/10/07 08:07:55;;;;;;;;;;;;;;;;;;6148297;23;20304;-86
2023/10/07 08:10:22;;;;;;;;;;;;;;;;;;6178324;23;19916;-86
2023/10/07 08:12:53;;;;;;;;;;;;;;;;;;6148026;23;19920;-86
2023/10/07 08:15:23;;;;;;;;;;;;;;;;;;6123828;23;19920;-86
2023/10/07 08:17:56;;;;;;;;;;;;;;;;;;6123151;23;19920;-86
2023/10/07 08:20:37;;;;;;;;;;;;;;;;;;6150169;23;19924;-86
2023/10/07 08:23:37;;;;;;;;;;;;;;;;;;6176856;23;19924;-86
2023/10/07 08:26:34;;;;;;;;;;;;;;;;;;6196088;23;19924;-87
2023/10/07 08:29:30;;;;;;;;;;;;;;;;;;6177045;23;20348;-86
2023/10/07 08:31:57;;;;;;;;;;;;;;;;;;6149740;23;20450;-86
2023/10/07 08:34:32;;;;;;;;;;;;;;;;;;6151820;23;19951;-86
2023/10/07 08:37:01;;;;;;;;;;;;;;;;;;6179131;23;19920;-86
2023/10/07 08:39:44;;;;;;;;;;;;;;;;;;6175584;23;19920;-86
2023/10/07 08:42:13;;;;;;;;;;;;;;;;;;6176016;23;20356;-86
2023/10/07 08:44:43;;;;;;;;;;;;;;;;;;6172075;23;19926;-86
2023/10/07 08:47:11;;;;;;;;;;;;;;;;;;6176336;23;19924;-86
2023/10/07 08:49:43;;;;;;;;;;;;;;;;;;6174540;23;19922;-86
2023/10/07 08:52:19;;;;;;;;;;;;;;;;;;6145463;23;19970;-86
2023/10/07 08:54:47;;;;;;;;;;;;;;;;;;6171530;23;20227;-86
2023/10/07 08:57:22;;;;;;;;;;;;;;;;;;6150482;23;20393;-86
2023/10/07 08:59:52;;;;;;;;;;;;;;;;;;6147563;23;19920;-86
2023/10/07 09:02:30;;;;;;;;;;;;;;;;;;6126929;23;19924;-86
2023/10/07 09:05:08;;;;;;;;;;;;;;;;;;6172719;23;20414;-87
2023/10/07 09:07:36;;;;;;;;;;;;;;;;;;6145587;23;19921;-87
2023/10/07 09:10:17;;;;;;;;;;;;;;;;;;6147699;23;19920;-86
2023/10/07 09:12:51;;;;;;;;;;;;;;;;;;6173073;23;19916;-87
2023/10/07 09:15:28;;;;;;;;;;;;;;;;;;6146384;23;19990;-87
2023/10/07 09:18:10;;;;;;;;;;;;;;;;;;6143601;23;19929;-87
2023/10/07 09:20:45;;;;;;;;;;;;;;;;;;6144083;23;19920;-87
2023/10/07 09:23:15;;;;;;;;;;;;;;;;;;6148615;23;19920;-86
2023/10/07 09:25:52;;;;;;;;;;;;;;;;;;6144775;23;19931;-87
2023/10/07 09:28:30;;;;;;;;;;;;;;;;;;6148560;23;20355;-87
2023/10/07 09:31:05;;;;;;;;;;;;;;;;;;6171497;23;20294;-87
2023/10/07 09:33:35;;;;;;;;;;;;;;;;;;6121581;23;19960;-87
2023/10/07 09:38:49;;;;;;;;;;;;;;;;;;6110028;23;20123;-86
2023/10/07 09:41:32;;;;;;;;;;;;;;;;;;6087226;23;19928;-87
2023/10/07 09:44:00;;;;;;;;;;;;;;;;;;6086220;23;19921;-87
2023/10/07 09:46:34;;;;;;;;;;;;;;;;;;6106637;23;19921;-87
2023/10/07 09:49:02;;;;;;;;;;;;;;;;;;6111630;23;19921;-86
2023/10/07 09:51:34;;;;;;;;;;;;;;;;;;6113120;23;20259;-87
2023/10/07 09:54:02;;;;;;;;;;;;;;;;;;6059695;23;19921;-86
2023/10/07 09:56:31;;;;;;;;;;;;;;;;;;6086403;23;19921;-87
2023/10/07 09:59:00;;;;;;;;;;;;;;;;;;6061397;23;19917;-86
2023/10/07 10:01:36;;;;;;;;;;;;;;;;;;6085475;23;19924;-87
2023/10/07 10:04:13;;;;;;;;;;;;;;;;;;6084990;23;19928;-86
2023/10/07 10:06:40;;;;;;;;;;;;;;;;;;6080069;23;19918;-86
2023/10/07 10:09:13;;;;;;;;;;;;;;;;;;6080901;23;19968;-86
2023/10/07 10:11:44;;;;;;;;;;;;;;;;;;6110140;23;19963;-87
2023/10/07 10:14:18;;;;;;;;;;;;;;;;;;6085890;23;19927;-87
2023/10/07 10:16:57;;;;;;;;;;;;;;;;;;6089828;23;19960;-87
2023/10/07 10:22:22;;;;;;;;;;;;;;;;;;6079507;23;19925;-87
2023/10/07 10:24:57;;;;;;;;;;;;;;;;;;6083643;23;19928;-86
2023/10/07 10:27:34;;;;;;;;;;;;;;;;;;6084435;23;19965;-87
2023/10/07 10:30:10;;;;;;;;;;;;;;;;;;6088052;23;19944;-86
2023/10/07 10:32:46;;;;;;;;;;;;;;;;;;6084938;23;20007;-87
2023/10/07 10:35:14;;;;;;;;;;;;;;;;;;6063337;23;19920;-86
2023/10/07 10:37:57;;;;;;;;;;;;;;;;;;6107115;23;20274;-86
2023/10/07 10:40:31;;;;;;;;;;;;;;;;;;6064092;23;19921;-82
2023/10/07 10:42:59;;;;;;;;;;;;;;;;;;6137969;23;19923;-86
2023/10/07 10:45:29;;;;;;;;;;;;;;;;;;6125181;23;19920;-86
2023/10/07 10:47:58;;;;;;;;;;;;;;;;;;6147574;23;20324;-86
2023/10/07 10:50:32;;;;;;;;;;;;;;;;;;6149006;23;19920;-86
2023/10/07 10:53:16;;;;;;;;;;;;;;;;;;6148611;23;19920;-87
2023/10/07 10:55:46;;;;;;;;;;;;;;;;;;6145017;23;19951;-87
2023/10/07 10:58:19;;;;;;;;;;;;;;;;;;6146819;23;19956;-86
2023/10/07 11:00:49;;;;;;;;;;;;;;;;;;6148363;23;19982;-87
2023/10/07 11:03:24;;;;;;;;;;;;;;;;;;6149016;23;19916;-87
2023/10/07 11:05:52;;;;;;;;;;;;;;;;;;6147431;23;20493;-87
2023/10/07 11:08:38;;;;;;;;;;;;;;;;;;6144775;23;20007;-85
2023/10/07 11:11:17;;;;;;;;;;;;;;;;;;6147832;23;19970;-84
2023/10/07 11:13:46;;;;;;;;;;;;;;;;;;6142243;23;19927;-85
2023/10/07 11:16:16;;;;;;;;;;;;;;;;;;6122792;23;19944;-85
2023/10/07 11:18:45;;;;;;;;;;;;;;;;;;6143441;23;19999;-85
2023/10/07 11:21:15;;;;;;;;;;;;;;;;;;6138136;23;19999;-85
2023/10/07 11:23:54;;;;;;;;;;;;;;;;;;6113433;23;19920;-85
2023/10/07 11:26:24;;;;;;;;;;;;;;;;;;6115976;23;20341;-85
2023/10/07 11:29:00;;;;;;;;;;;;;;;;;;6118197;23;20350;-85
2023/10/07 11:31:28;;;;;;;;;;;;;;;;;;6095589;23;19952;-85
2023/10/07 11:33:56;;;;;;;;;;;;;;;;;;6115719;23;19921;-85
2023/10/07 11:36:24;;;;;;;;;;;;;;;;;;6122982;23;19935;-85
2023/10/07 11:38:53;;;;;;;;;;;;;;;;;;6119964;23;19921;-85
2023/10/07 11:41:31;;;;;;;;;;;;;;;;;;6121841;23;19921;-85
2023/10/07 11:44:16;;;;;;;;;;;;;;;;;;6115533;23;19920;-88
2023/10/07 11:46:58;;;;;;;;;;;;;;;;;;6121531;23;19924;-87
2023/10/07 11:49:25;;;;;;;;;;;;;;;;;;6094854;23;19920;-87
2023/10/07 11:51:51;;;;;;;;;;;;;;;;;;6092112;23;20060;-87
2023/10/07 11:54:24;;;;;;;;;;;;;;;;;;6115373;23;19991;-88
2023/10/07 11:56:51;;;;;;;;;;;;;;;;;;6116542;23;20359;-85
2023/10/07 11:59:19;;;;;;;;;;;;;;;;;;6118111;23;19928;-85
2023/10/07 12:01:53;;;;;;;;;;;;;;;;;;6115815;23;20019;-87
2023/10/07 12:04:21;;;;;;;;;;;;;;;;;;6116230;23;19920;-87
2023/10/07 12:06:51;;;;;;;;;;;;;;;;;;6113604;23;19971;-87
2023/10/07 12:09:23;;;;;;;;;;;;;;;;;;6141560;23;19929;-88
2023/10/07 12:11:53;;;;;;;;;;;;;;;;;;6112547;23;20127;-87
2023/10/07 12:14:28;;;;;;;;;;;;;;;;;;6141011;23;19920;-87
2023/10/07 12:16:55;;;;;;;;;;;;;;;;;;6140510;23;20348;-87
2023/10/07 12:19:21;;;;;;;;;;;;;;;;;;6117037;23;19932;-87
2023/10/07 12:21:49;;;;;;;;;;;;;;;;;;6129058;23;20650;-85
2023/10/07 12:24:16;;;;;;;;;;;;;;;;;;6147231;23;19927;-84
2023/10/07 12:26:45;;;;;;;;;;;;;;;;;;6119427;23;19928;-85
2023/10/07 12:29:17;;;;;;;;;;;;;;;;;;6165875;23;19920;-85
2023/10/07 12:31:47;;;;;;;;;;;;;;;;;;6140597;23;19952;-85
2023/10/07 12:34:18;;;;;;;;;;;;;;;;;;6120980;23;20339;-85
2023/10/07 12:36:45;;;;;;;;;;;;;;;;;;6146985;23;20363;-86
2023/10/07 12:39:14;;;;;;;;;;;;;;;;;;6143534;23;19970;-85
2023/10/07 12:41:41;;;;;;;;;;;;;;;;;;6145040;23;19920;-85
2023/10/07 12:44:11;;;;;;;;;;;;;;;;;;6145340;23;19995;-85
2023/10/07 12:46:43;;;;;;;;;;;;;;;;;;6119863;23;19926;-85
2023/10/07 12:49:17;;;;;;;;;;;;;;;;;;6145916;23;19992;-85
2023/10/07 12:51:44;;;;;;;;;;;;;;;;;;6140463;23;19920;-85
2023/10/07 12:54:11;;;;;;;;;;;;;;;;;;6145697;23;19927;-85
2023/10/07 12:56:38;;;;;;;;;;;;;;;;;;6169939;23;19948;-85
2023/10/07 12:59:17;;;;;;;;;;;;;;;;;;6173042;23;19920;-85
2023/10/07 13:01:47;;;;;;;;;;;;;;;;;;6145766;23;20244;-86
2023/10/07 13:04:13;;;;;;;;;;;;;;;;;;6173765;23;19916;-85
2023/10/07 13:06:42;;;;;;;;;;;;;;;;;;6119169;23;19920;-86
2023/10/07 13:09:16;;;;;;;;;;;;;;;;;;6146404;23;19927;-85
2023/10/07 13:11:43;;;;;;;;;;;;;;;;;;6117311;23;19924;-85
2023/10/07 13:14:11;;;;;;;;;;;;;;;;;;6121461;23;19982;-85
2023/10/07 13:16:39;;;;;;;;;;;;;;;;;;6116498;23;19959;-86
2023/10/07 13:19:09;;;;;;;;;;;;;;;;;;6143329;23;19920;-85
2023/10/07 13:21:36;;;;;;;;;;;;;;;;;;6133373;23;19921;-86
2023/10/07 13:24:07;;;;;;;;;;;;;;;;;;6114263;23;19920;-85
2023/10/07 13:26:35;;;;;;;;;;;;;;;;;;6110250;23;20337;-85
2023/10/07 13:29:20;;;;;;;;;;;;;;;;;;6140060;23;19939;-85
2023/10/07 13:31:52;;;;;;;;;;;;;;;;;;6137902;23;19920;-85
2023/10/07 13:34:38;;;;;;;;;;;;;;;;;;6142324;23;19921;-85
2023/10/07 13:37:29;;;;;;;;;;;;;;;;;;6143777;23;19933;-85
2023/10/07 13:40:16;;;;;;;;;;;;;;;;;;6117420;23;19920;-85
2023/10/07 13:42:47;;;;;;;;;;;;;;;;;;6091940;23;19948;-86
2023/10/07 13:45:14;;;;;;;;;;;;;;;;;;6119839;23;19927;-86
2023/10/07 13:47:44;;;;;;;;;;;;;;;;;;6090927;23;19995;-85
2023/10/07 13:50:13;;;;;;;;;;;;;;;;;;6118544;23;19921;-86
2023/10/07 13:52:50;;;;;;;;;;;;;;;;;;6116892;23;19923;-86
2023/10/07 13:55:33;;;;;;;;;;;;;;;;;;6118060;23;19921;-86
2023/10/07 13:58:00;;;;;;;;;;;;;;;;;;6118674;23;19940;-85
2023/10/07 14:00:36;;;;;;;;;;;;;;;;;;6116726;23;20015;-86
2023/10/07 14:03:05;;;;;;;;;;;;;;;;;;6144895;23;19920;-85
2023/10/07 14:05:41;;;;;;;;;;;;;;;;;;6118883;23;19970;-86
2023/10/07 14:08:18;;;;;;;;;;;;;;;;;;6120739;23;19924;-85
2023/10/07 14:10:43;;;;;;;;;;;;;;;;;;6118767;23;19967;-85
2023/10/07 14:13:11;;;;;;;;;;;;;;;;;;6120489;23;20282;-86
2023/10/07 14:15:39;;;;;;;;;;;;;;;;;;6118023;23;19971;-85
2023/10/07 14:18:06;;;;;;;;;;;;;;;;;;6120292;23;19927;-85
2023/10/07 14:20:33;;;;;;;;;;;;;;;;;;6092103;23;19974;-86
2023/10/07 14:23:02;;;;;;;;;;;;;;;;;;6173570;23;19970;-85
2023/10/07 14:25:28;;;;;;;;;;;;;;;;;;6121928;23;19920;-85
2023/10/07 14:27:55;;;;;;;;;;;;;;;;;;6146594;23;19924;-86
2023/10/07 14:30:26;;;;;;;;;;;;;;;;;;6148435;23;20314;-85
2023/10/07 14:32:53;;;;;;;;;;;;;;;;;;6146766;23;20030;-85
2023/10/07 14:35:40;;;;;;;;;;;;;;;;;;6144084;23;19920;-85
2023/10/07 14:38:10;;;;;;;;;;;;;;;;;;6147148;23;19948;-85
2023/10/07 14:40:43;;;;;;;;;;;;;;;;;;6121624;23;19959;-86
2023/10/07 14:43:12;;;;;;;;;;;;;;;;;;6172530;23;19927;-86
2023/10/07 14:45:43;;;;;;;;;;;;;;;;;;6168847;23;19975;-85
2023/10/07 14:48:18;;;;;;;;;;;;;;;;;;6148377;23;19929;-85
2023/10/07 14:50:45;;;;;;;;;;;;;;;;;;6147276;23;19920;-85
2023/10/07 14:53:12;;;;;;;;;;;;;;;;;;6149231;23;20002;-85
2023/10/07 14:55:44;;;;;;;;;;;;;;;;;;6148049;23;19925;-86
2023/10/07 14:58:14;;;;;;;;;;;;;;;;;;6149307;23;20006;-85
2023/10/07 15:00:42;;;;;;;;;;;;;;;;;;6120447;23;19967;-85
2023/10/07 15:03:14;;;;;;;;;;;;;;;;;;6123955;23;21505;-85
2023/10/07 15:05:45;;;;;;;;;;;;;;;;;;6146147;23;19964;-85
2023/10/07 15:08:13;;;;;;;;;;;;;;;;;;6124714;23;19920;-85
2023/10/07 15:10:43;;;;;;;;;;;;;;;;;;6122164;23;20285;-85
2023/10/07 15:13:11;;;;;;;;;;;;;;;;;;6149005;23;19951;-85
2023/10/07 15:15:41;;;;;;;;;;;;;;;;;;6144427;23;20261;-85
2023/10/07 15:18:11;;;;;;;;;;;;;;;;;;6149748;23;19975;-85
2023/10/07 15:20:39;;;;;;;;;;;;;;;;;;6144688;23;19916;-85
2023/10/07 15:23:05;;;;;;;;;;;;;;;;;;6144568;23;19924;-84
2023/10/07 15:25:31;;;;;;;;;;;;;;;;;;6139644;23;19927;-85
2023/10/07 15:27:59;;;;;;;;;;;;;;;;;;6166690;23;19924;-85
2023/10/07 15:30:27;;;;;;;;;;;;;;;;;;6144036;23;19991;-85
2023/10/07 15:33:06;;;;;;;;;;;;;;;;;;6145458;23;19947;-85
2023/10/07 15:35:33;;;;;;;;;;;;;;;;;;6140475;23;19920;-85
2023/10/07 15:38:01;;;;;;;;;;;;;;;;;;6122214;23;19917;-85
2023/10/07 15:40:28;;;;;;;;;;;;;;;;;;6141919;23;19955;-84
2023/10/07 15:42:55;;;;;;;;;;;;;;;;;;6116515;23;19920;-85
2023/10/07 15:51:39;;;;;;;;;;;;;;;;;;6173227;23;19995;-86
2023/10/07 15:54:11;;;;;;;;;;;;;;;;;;6144550;23;19920;-86
2023/10/07 15:56:41;;;;;;;;;;;;;;;;;;6165727;23;19930;-86
2023/10/07 15:59:09;;;;;;;;;;;;;;;;;;6169952;23;20333;-86
2023/10/07 16:04:40;;;;;;;;;;;;;;;;;;6177942;23;19926;-86
2023/10/07 16:07:07;;;;;;;;;;;;;;;;;;6172543;23;20035;-86
2023/10/07 16:09:51;;;;;;;;;;;;;;;;;;;;;
2023/10/07 16:29:40;;;;;;;;;;;;;;;;;;6193184;23;19923;-88
2023/10/07 16:32:06;;;;;;;;;;;;;;;;;;6175731;23;19991;-87
2023/10/07 16:34:32;;;;;;;;;;;;;;;;;;6148277;23;19926;-88
2023/10/07 16:36:58;;;;;;;;;;;;;;;;;;6177475;23;19920;-87
2023/10/07 16:39:24;;;;;;;;;;;;;;;;;;6173668;23;20035;-88
2023/10/07 16:41:53;;;;;;;;;;;;;;;;;;6175427;23;19982;-87
2023/10/07 16:44:19;;;;;;;;;;;;;;;;;;6153338;23;19919;-88
2023/10/07 16:46:46;;;;;;;;;;;;;;;;;;6175200;23;19939;-88
2023/10/07 16:49:12;;;;;;;;;;;;;;;;;;6149215;23;20502;-89
2023/10/07 16:51:38;;;;;;;;;;;;;;;;;;6147943;23;20002;-88
2023/10/07 16:54:04;;;;;;;;;;;;;;;;;;6150926;23;20700;-88
2023/10/07 16:56:33;;;;;;;;;;;;;;;;;;6173658;23;19922;-87
2023/10/07 16:58:59;;;;;;;;;;;;;;;;;;6177535;23;19983;-88
2023/10/07 17:01:25;;;;;;;;;;;;;;;;;;6177489;23;20321;-88
2023/10/07 17:03:53;;;;;;;;;;;;;;;;;;6174931;23;19999;-88
2023/10/07 17:06:27;;;;;;;;;;;;;;;;;;6149911;23;19992;-88
2023/10/07 17:08:53;;;;;;;;;;;;;;;;;;6151174;23;20042;-88
2023/10/07 17:11:19;;;;;;;;;;;;;;;;;;6151510;23;19919;-88
2023/10/07 17:14:02;;;;;;;;;;;;;;;;;;;;;
2023/10/07 17:17:06;;;;;;;;;;;;;;;;;;6189807;23;19991;-88
2023/10/07 17:20:06;;;;;;;;;;;;;;;;;;;;;
2023/10/07 17:51:57;;;;;;;;;;;;;;;;;;6197829;23;20249;-89
2023/10/07 17:54:23;;;;;;;;;;;;;;;;;;6145824;23;19920;-89
2023/10/07 18:41:42;;;;;;;;;;;;;;;;;;6150453;23;19923;-88
2023/10/07 18:44:11;;;;;;;;;;;;;;;;;;6116537;23;19924;-87
2023/10/07 18:53:15;;;;;;;;;;;;;;;;;;6062495;23;20360;-88
2023/10/07 19:08:14;;;;;;;;;;;;;;;;;;;;;
2023/10/07 19:11:25;;;;;;;;;;;;;;;;;;6023341;23;19929;-87
2023/10/07 19:14:02;;;;;;;;;;;;;;;;;;6046771;23;19980;-88
2023/10/07 19:25:56;;;;;;;;;;;;;;;;;;5931655;23;19929;-83
2023/10/07 19:31:50;;;;;;;;;;;;;;;;;;5974771;23;20313;-83
2023/10/07 19:37:42;;;;;;;;;;;;;;;;;;;;;
2023/10/07 19:43:25;;;;;;;;;;;;;;;;;;6109630;23;20103;-83
2023/10/07 19:49:09;;;;;;;;;;;;;;;;;;6140490;23;19928;-83
2023/10/07 19:55:27;;;;;;;;;;;;;;;;;;5934082;23;20682;-83
2023/10/07 20:01:25;;;;;;;;;;;;;;;;;;5967320;23;20252;-83
2023/10/07 20:04:03;;;;;;;;;;;;;;;;;;6014758;23;19950;-84
2023/10/07 20:15:29;;;;;;;;;;;;;;;;;;5981605;23;20392;-83
2023/10/07 20:18:25;;;;;;;;;;;;;;;;;;6000305;23;19981;-83
2023/10/07 20:24:22;;;;;;;;;;;;;;;;;;6043614;23;20449;-83
2023/10/07 20:27:06;;;;;;;;;;;;;;;;;;6021774;23;20000;-83
2023/10/07 20:29:35;;;;;;;;;;;;;;;;;;6060271;23;19924;-83
2023/10/07 20:32:01;;;;;;;;;;;;;;;;;;6110161;23;19976;-83
2023/10/07 20:34:41;;;;;;;;;;;;;;;;;;6137344;23;19920;-83